createdAt,value
2019-05-23T00:01:48.457Z,94822.72
2019-05-23T00:04:45.161Z,94821.80
2019-05-23T00:07:31.216Z,94819.84
2019-05-23T00:10:21.569Z,94820.04
2019-05-23T00:12:54.971Z,94826.70
2019-05-23T00:15:34.444Z,94828.16
2019-05-23T00:18:01.515Z,94837.02
2019-05-23T00:20:29.507Z,94836.08
2019-05-23T00:22:57.077Z,94839.58
2019-05-23T00:25:24.209Z,94829.94
2019-05-23T00:27:52.687Z,94832.89
2019-05-23T00:30:24.582Z,94839.17
2019-05-23T00:32:53.281Z,94831.97
2019-05-23T00:35:20.409Z,94836.87
2019-05-23T00:37:48.181Z,94841.87
2019-05-23T00:40:16.290Z,94840.14
2019-05-23T00:42:44.720Z,94836.69
2019-05-23T00:45:15.171Z,94841.63
2019-05-23T00:47:42.037Z,94840.81
2019-05-23T00:50:10.343Z,94845.02
2019-05-23T00:52:37.836Z,94840.98
2019-05-23T00:55:05.963Z,94843.10
2019-05-23T00:57:33.030Z,94845.10
2019-05-23T01:00:00.393Z,94842.06
2019-05-23T01:02:27.231Z,94839.44
2019-05-23T01:04:54.087Z,94839.86
2019-05-23T01:07:21.154Z,94841.36
2019-05-23T01:09:49.148Z,94843.89
2019-05-23T01:12:16.119Z,94841.75
2019-05-23T01:14:43.175Z,94841.70
2019-05-23T01:17:11.741Z,94836.92
2019-05-23T01:19:39.111Z,94840.10
2019-05-23T01:22:10.296Z,94835.52
2019-05-23T01:24:42.366Z,94827.19
2019-05-23T01:27:09.881Z,94828.73
2019-05-23T01:29:39.194Z,94826.49
2019-05-23T01:32:25.550Z,94826.91
2019-05-23T01:34:52.912Z,94817.13
2019-05-23T01:37:20.881Z,94814.41
2019-05-23T01:39:48.100Z,94810.16
2019-05-23T01:42:15.987Z,94797.17
2019-05-23T01:44:43.361Z,94802.84
2019-05-23T01:47:10.934Z,94801.38
2019-05-23T01:49:38.483Z,94801.89
2019-05-23T01:52:06.303Z,94803.16
2019-05-23T01:54:33.223Z,94798.05
2019-05-23T01:57:00.130Z,94797.25
2019-05-23T01:59:27.741Z,94806.84
2019-05-23T02:01:54.443Z,94797.95
2019-05-23T02:04:22.076Z,94800.33
2019-05-23T02:06:48.813Z,94794.35
2019-05-23T02:09:16.450Z,94799.98
2019-05-23T02:11:43.318Z,94801.13
2019-05-23T02:14:10.883Z,94807.27
2019-05-23T02:16:38.445Z,94810.52
2019-05-23T02:19:07.214Z,94807.84
2019-05-23T02:21:34.746Z,94812.98
2019-05-23T02:24:04.670Z,94812.27
2019-05-23T02:26:32.155Z,94807.95
2019-05-23T02:29:00.345Z,94801.45
2019-05-23T02:31:27.704Z,94809.39
2019-05-23T02:33:55.183Z,94811.86
2019-05-23T02:36:22.468Z,94812.38
2019-05-23T02:39:00.466Z,94805.95
2019-05-23T02:41:38.088Z,94799.86
2019-05-23T02:44:15.861Z,94803.25
2019-05-23T02:46:50.961Z,94802.53
2019-05-23T02:49:27.464Z,94803.77
2019-05-23T02:51:55.123Z,94806.95
2019-05-23T02:54:26.516Z,94809.11
2019-05-23T02:56:56.133Z,94809.35
2019-05-23T02:59:48.461Z,94814.20
2019-05-23T03:02:39.226Z,94807.06
2019-05-23T03:05:09.933Z,94801.89
2019-05-23T03:07:38.340Z,94810.02
2019-05-23T03:10:09.271Z,94807.83
2019-05-23T03:12:38.310Z,94803.37
2019-05-23T03:15:08.262Z,94810.74
2019-05-23T03:17:42.608Z,94811.86
2019-05-23T03:20:10.891Z,94806.20
2019-05-23T03:22:56.738Z,94804.88
2019-05-23T03:25:37.744Z,94803.56
2019-05-23T03:28:07.087Z,94805.75
2019-05-23T03:30:42.161Z,94808.77
2019-05-23T03:33:09.482Z,94810.61
2019-05-23T03:35:38.381Z,94816.72
2019-05-23T03:38:05.443Z,94810.50
2019-05-23T03:40:32.664Z,94816.68
2019-05-23T03:43:00.763Z,94818.00
2019-05-23T03:45:32.275Z,94820.95
2019-05-23T03:48:00.366Z,94827.57
2019-05-23T03:50:28.961Z,94825.68
2019-05-23T03:52:56.474Z,94835.93
2019-05-23T03:55:24.443Z,94838.45
2019-05-23T03:57:52.442Z,94841.67
2019-05-23T04:00:21.085Z,94834.89
2019-05-23T04:02:49.616Z,94838.48
2019-05-23T04:05:16.960Z,94836.80
2019-05-23T04:07:44.418Z,94834.34
2019-05-23T04:10:11.899Z,94841.30
2019-05-23T04:12:38.818Z,94837.62
2019-05-23T04:15:07.246Z,94835.89
2019-05-23T04:17:34.138Z,94839.30
2019-05-23T04:20:01.397Z,94839.11
2019-05-23T04:22:28.872Z,94838.17
2019-05-23T04:24:56.003Z,94840.97
2019-05-23T04:27:23.354Z,94840.16
2019-05-23T04:29:50.148Z,94845.09
2019-05-23T04:32:17.270Z,94852.75
2019-05-23T04:34:44.154Z,94850.89
2019-05-23T04:37:11.005Z,94847.52
2019-05-23T04:39:37.859Z,94855.26
2019-05-23T04:42:04.928Z,94851.56
2019-05-23T04:44:31.811Z,94853.55
2019-05-23T04:46:59.551Z,94850.82
2019-05-23T04:49:26.783Z,94849.33
2019-05-23T04:51:54.739Z,94857.83
2019-05-23T04:54:23.002Z,94851.91
2019-05-23T04:56:50.640Z,94843.89
2019-05-23T04:59:18.547Z,94854.60
2019-05-23T05:01:46.897Z,94860.48
2019-05-23T05:04:13.959Z,94862.45
2019-05-23T05:06:41.790Z,94862.55
2019-05-23T05:09:10.076Z,94860.64
2019-05-23T05:11:36.865Z,94856.27
2019-05-23T05:14:04.525Z,94855.36
2019-05-23T05:16:31.963Z,94860.20
2019-05-23T05:18:58.995Z,94857.38
2019-05-23T05:21:26.113Z,94855.84
2019-05-23T05:23:52.875Z,94870.56
2019-05-23T05:26:22.229Z,94873.73
2019-05-23T05:28:50.284Z,94870.86
2019-05-23T05:31:17.585Z,94874.88
2019-05-23T05:33:44.481Z,94869.10
2019-05-23T05:36:11.890Z,94871.88
2019-05-23T05:38:38.976Z,94872.53
2019-05-23T05:41:06.040Z,94867.62
2019-05-23T05:43:32.985Z,94873.53
2019-05-23T05:45:59.912Z,94868.59
2019-05-23T05:48:28.069Z,94868.84
2019-05-23T05:50:55.104Z,94879.77
2019-05-23T05:53:22.068Z,94884.26
2019-05-23T05:55:48.874Z,94879.35
2019-05-23T05:58:15.766Z,94882.66
2019-05-23T06:00:50.402Z,94889.11
2019-05-23T06:03:17.170Z,94897.78
2019-05-23T06:06:02.331Z,94899.67
2019-05-23T06:08:30.999Z,94910.41
2019-05-23T06:10:58.630Z,94903.76
2019-05-23T06:13:25.322Z,94900.98
2019-05-23T06:15:53.707Z,94893.92
2019-05-23T06:18:20.491Z,94900.67
2019-05-23T06:20:48.589Z,94904.51
2019-05-23T06:23:16.348Z,94903.84
2019-05-23T06:25:43.210Z,94900.05
2019-05-23T06:28:13.202Z,94903.89
2019-05-23T06:30:41.908Z,94898.06
2019-05-23T06:33:22.843Z,94897.50
2019-05-23T06:35:38.296Z,94904.64
2019-05-23T06:38:05.279Z,94900.45
2019-05-23T06:40:40.766Z,94898.30
2019-05-23T06:43:25.834Z,94897.66
2019-05-23T06:46:06.435Z,94897.64
2019-05-23T06:48:45.814Z,94888.17
2019-05-23T06:51:26.681Z,94891.00
2019-05-23T06:53:58.670Z,94887.16
2019-05-23T06:56:43.866Z,94881.23
2019-05-23T06:59:29.149Z,94889.41
2019-05-23T07:02:15.547Z,94886.41
2019-05-23T07:04:59.188Z,94886.34
2019-05-23T07:07:39.225Z,94895.41
2019-05-23T07:10:14.147Z,94891.68
2019-05-23T07:12:55.124Z,94894.09
2019-05-23T07:15:36.106Z,94891.06
2019-05-23T07:18:15.505Z,94892.40
2019-05-23T07:20:47.608Z,94897.41
2019-05-23T07:23:23.285Z,94897.41
2019-05-23T07:26:10.997Z,94894.20
2019-05-23T07:28:51.066Z,94895.92
2019-05-23T07:31:27.627Z,94893.34
2019-05-23T07:34:18.158Z,94900.89
2019-05-23T07:36:58.250Z,94885.55
2019-05-23T07:39:27.894Z,94907.49
2019-05-23T07:41:56.999Z,94907.49
2019-05-23T07:44:25.029Z,94894.64
2019-05-23T07:46:52.763Z,94885.30
2019-05-23T07:49:24.791Z,94885.30
2019-05-23T07:52:07.689Z,94885.23
2019-05-23T07:54:48.775Z,94880.24
2019-05-23T07:57:38.590Z,94892.64
2019-05-23T08:00:21.272Z,94894.56
2019-05-23T08:03:04.249Z,94893.13
2019-05-23T08:05:40.572Z,94890.05
2019-05-23T08:08:09.392Z,94898.73
2019-05-23T08:10:39.177Z,94896.08
2019-05-23T08:13:09.637Z,94897.64
2019-05-23T08:15:39.914Z,94895.94
2019-05-23T08:18:10.634Z,94893.52
2019-05-23T08:20:38.046Z,94889.19
2019-05-23T08:23:04.843Z,94896.02
2019-05-23T08:25:31.719Z,94884.34
2019-05-23T08:27:58.965Z,94887.20
2019-05-23T08:30:25.900Z,94894.41
2019-05-23T08:32:53.095Z,94893.48
2019-05-23T08:35:20.317Z,94889.45
2019-05-23T08:37:47.169Z,94899.37
2019-05-23T08:40:15.443Z,94898.65
2019-05-23T08:42:43.464Z,94895.50
2019-05-23T08:45:10.987Z,94900.23
2019-05-23T08:47:39.205Z,94889.59
2019-05-23T08:50:08.836Z,94890.75
2019-05-23T08:52:35.564Z,94892.58
2019-05-23T08:55:25.132Z,94897.36
2019-05-23T08:57:53.936Z,94890.13
2019-05-23T09:00:24.762Z,94886.73
2019-05-23T09:02:52.922Z,94884.02
2019-05-23T09:05:20.951Z,94879.23
2019-05-23T09:07:48.405Z,94880.90
2019-05-23T09:10:15.662Z,94887.97
2019-05-23T09:12:42.422Z,94883.31
2019-05-23T09:15:10.484Z,94880.70
2019-05-23T09:17:52.268Z,94883.88
2019-05-23T09:20:08.862Z,94881.84
2019-05-23T09:22:36.262Z,94882.74
2019-05-23T09:25:04.635Z,94878.06
2019-05-23T09:27:34.603Z,94870.19
2019-05-23T09:30:01.012Z,94868.28
2019-05-23T09:32:28.357Z,94871.95
2019-05-23T09:34:55.034Z,94867.95
2019-05-23T09:37:21.736Z,94866.24
2019-05-23T09:39:49.462Z,94870.81
2019-05-23T09:42:16.546Z,94867.95
2019-05-23T09:44:43.381Z,94877.06
2019-05-23T09:47:10.205Z,94881.31
2019-05-23T09:49:36.935Z,94878.65
2019-05-23T09:52:05.242Z,94870.86
2019-05-23T09:54:32.477Z,94869.66
2019-05-23T09:57:00.362Z,94870.84
2019-05-23T09:59:27.382Z,94864.64
2019-05-23T10:01:55.815Z,94867.70
2019-05-23T10:04:22.606Z,94859.44
2019-05-23T10:06:49.294Z,94864.88
2019-05-23T10:09:16.016Z,94859.39
2019-05-23T10:11:42.738Z,94856.79
2019-05-23T10:14:11.455Z,94848.42
2019-05-23T10:16:38.667Z,94858.53
2019-05-23T10:19:05.475Z,94846.74
2019-05-23T10:21:32.522Z,94847.41
2019-05-23T10:23:59.367Z,94848.30
2019-05-23T10:26:26.542Z,94834.70
2019-05-23T10:28:53.536Z,94837.66
2019-05-23T10:31:20.974Z,94833.55
2019-05-23T10:33:47.679Z,94829.96
2019-05-23T10:36:14.494Z,94829.62
2019-05-23T10:38:41.724Z,94822.37
2019-05-23T10:41:08.702Z,94818.52
2019-05-23T10:43:35.384Z,94814.89
2019-05-23T10:46:02.214Z,94810.20
2019-05-23T10:48:29.820Z,94813.87
2019-05-23T10:50:56.516Z,94802.71
2019-05-23T10:53:23.482Z,94801.56
2019-05-23T10:55:50.221Z,94801.03
2019-05-23T10:58:17.565Z,94793.08
2019-05-23T11:00:45.582Z,94801.13
2019-05-23T11:03:12.567Z,94801.56
2019-05-23T11:05:39.293Z,94792.44
2019-05-23T11:08:07.785Z,94797.07
2019-05-23T11:10:34.940Z,94792.22
2019-05-23T11:13:02.828Z,94788.92
2019-05-23T11:15:30.159Z,94775.00
2019-05-23T11:17:57.360Z,94786.77
2019-05-23T11:20:26.931Z,94788.26
2019-05-23T11:22:55.769Z,94782.43
2019-05-23T11:25:23.559Z,94784.60
2019-05-23T11:27:50.340Z,94779.14
2019-05-23T11:30:22.302Z,94784.81
2019-05-23T11:32:48.979Z,94780.83
2019-05-23T11:35:15.763Z,94785.53
2019-05-23T11:37:42.678Z,94784.95
2019-05-23T11:40:09.679Z,94782.55
2019-05-23T11:42:36.351Z,94784.91
2019-05-23T11:45:05.125Z,94777.83
2019-05-23T11:47:32.300Z,94776.93
2019-05-23T11:49:59.205Z,94773.64
2019-05-23T11:52:26.541Z,94772.52
2019-05-23T11:54:53.381Z,94764.74
2019-05-23T11:57:20.213Z,94761.52
2019-05-23T11:59:48.869Z,94764.43
2019-05-23T12:02:23.929Z,94755.47
2019-05-23T12:04:52.415Z,94745.81
2019-05-23T12:07:20.937Z,94745.62
2019-05-23T12:09:47.902Z,94755.42
2019-05-23T12:12:14.693Z,94741.49
2019-05-23T12:14:41.386Z,94738.47
2019-05-23T12:17:08.415Z,94742.46
2019-05-23T12:19:35.762Z,94739.05
2019-05-23T12:22:02.674Z,94740.67
2019-05-23T12:24:34.422Z,94738.28
2019-05-23T12:26:58.278Z,94735.39
2019-05-23T12:29:25.106Z,94734.36
2019-05-23T12:31:51.804Z,94728.06
2019-05-23T12:34:18.800Z,94719.47
2019-05-23T12:36:45.517Z,94709.69
2019-05-23T12:39:12.492Z,94713.86
2019-05-23T12:41:41.358Z,94713.35
2019-05-23T12:44:08.437Z,94698.80
2019-05-23T12:46:35.078Z,94707.03
2019-05-23T12:49:03.773Z,94695.25
2019-05-23T12:51:38.180Z,94693.72
2019-05-23T12:54:05.086Z,94693.06
2019-05-23T12:56:32.483Z,94705.31
2019-05-23T12:59:00.022Z,94704.11
2019-05-23T13:01:28.249Z,94710.91
2019-05-23T13:03:55.077Z,94710.13
2019-05-23T13:06:21.872Z,94707.66
2019-05-23T13:08:48.837Z,94713.09
2019-05-23T13:11:15.763Z,94707.45
2019-05-23T13:13:42.511Z,94703.55
2019-05-23T13:16:09.292Z,94699.80
2019-05-23T13:18:35.973Z,94690.31
2019-05-23T13:21:02.748Z,94695.56
2019-05-23T13:23:29.762Z,94692.35
2019-05-23T13:25:56.472Z,94682.73
2019-05-23T13:28:23.533Z,94686.53
2019-05-23T13:30:50.436Z,94687.55
2019-05-23T13:33:17.384Z,94680.48
2019-05-23T13:35:44.609Z,94689.55
2019-05-23T13:38:11.622Z,94695.14
2019-05-23T13:40:38.567Z,94697.20
2019-05-23T13:43:08.028Z,94698.88
2019-05-23T13:45:34.062Z,94699.66
2019-05-23T13:48:00.861Z,94698.57
2019-05-23T13:50:27.892Z,94691.68
2019-05-23T13:52:54.765Z,94694.44
2019-05-23T13:55:22.030Z,94690.01
2019-05-23T13:57:49.029Z,94679.53
2019-05-23T14:00:17.771Z,94688.95
2019-05-23T14:02:44.543Z,94682.78
2019-05-23T14:05:11.854Z,94687.61
2019-05-23T14:07:38.630Z,94683.91
2019-05-23T14:10:10.112Z,94677.05
2019-05-23T14:12:37.204Z,94679.35
2019-05-23T14:15:09.946Z,94679.20
2019-05-23T14:17:41.803Z,94670.35
2019-05-23T14:20:08.683Z,94670.31
2019-05-23T14:22:40.128Z,94671.62
2019-05-23T14:25:07.016Z,94673.37
2019-05-23T14:27:47.684Z,94682.09
2019-05-23T14:30:29.553Z,94677.81
2019-05-23T14:32:58.972Z,94684.41
2019-05-23T14:35:27.576Z,94686.47
2019-05-23T14:37:57.303Z,94691.36
2019-05-23T14:40:24.467Z,94690.99
2019-05-23T14:42:53.586Z,94685.75
2019-05-23T14:45:39.222Z,94682.13
2019-05-23T14:48:11.727Z,94684.03
2019-05-23T14:50:53.764Z,94686.44
2019-05-23T14:53:22.454Z,94685.96
2019-05-23T14:55:49.262Z,94682.55
2019-05-23T14:58:16.084Z,94683.97
2019-05-23T15:00:44.613Z,94686.75
2019-05-23T15:03:11.992Z,94678.88
2019-05-23T15:05:38.823Z,94676.91
2019-05-23T15:08:05.534Z,94678.21
2019-05-23T15:10:32.298Z,94668.50
2019-05-23T15:12:59.184Z,94676.38
2019-05-23T15:15:26.076Z,94676.58
2019-05-23T15:17:52.913Z,94667.61
2019-05-23T15:20:19.635Z,94669.95
2019-05-23T15:22:46.312Z,94665.72
2019-05-23T15:25:13.199Z,94666.86
2019-05-23T15:27:39.984Z,94667.48
2019-05-23T15:30:07.488Z,94665.22
2019-05-23T15:32:34.323Z,94673.50
2019-05-23T15:35:01.067Z,94668.20
2019-05-23T15:37:28.106Z,94675.58
2019-05-23T15:39:54.992Z,94685.95
2019-05-23T15:42:21.990Z,94682.87
2019-05-23T15:44:48.801Z,94685.84
2019-05-23T15:47:16.860Z,94684.30
2019-05-23T15:49:45.564Z,94682.94
2019-05-23T15:52:33.291Z,94688.34
2019-05-23T15:55:02.075Z,94691.31
2019-05-23T15:57:47.899Z,94691.86
2019-05-23T16:00:20.022Z,94699.00
2019-05-23T16:02:52.520Z,94705.30
2019-05-23T16:05:19.293Z,94710.91
2019-05-23T16:07:46.318Z,94712.86
2019-05-23T16:10:13.626Z,94712.43
2019-05-23T16:12:41.950Z,94710.14
2019-05-23T16:15:09.205Z,94712.80
2019-05-23T16:17:36.316Z,94711.30
2019-05-23T16:20:04.721Z,94707.05
2019-05-23T16:22:31.786Z,94712.88
2019-05-23T16:24:58.464Z,94714.41
2019-05-23T16:27:25.303Z,94715.55
2019-05-23T16:29:52.415Z,94716.69
2019-05-23T16:32:19.355Z,94710.86
2019-05-23T16:34:46.548Z,94710.55
2019-05-23T16:37:13.970Z,94709.06
2019-05-23T16:39:47.178Z,94710.77
2019-05-23T16:42:10.978Z,94712.27
2019-05-23T16:44:37.979Z,94717.30
2019-05-23T16:47:04.993Z,94713.18
2019-05-23T16:49:31.789Z,94714.53
2019-05-23T16:51:59.582Z,94698.42
2019-05-23T16:54:28.103Z,94704.72
2019-05-23T16:56:56.656Z,94706.74
2019-05-23T16:59:25.264Z,94705.13
2019-05-23T17:02:06.512Z,94709.02
2019-05-23T17:04:36.976Z,94712.80
2019-05-23T17:07:14.879Z,94711.42
2019-05-23T17:09:43.562Z,94704.56
2019-05-23T17:12:24.245Z,94706.49
2019-05-23T17:14:52.803Z,94709.46
2019-05-23T17:17:57.477Z,94714.45
2019-05-23T17:20:23.438Z,94711.96
2019-05-23T17:22:52.219Z,94706.38
2019-05-23T17:25:21.129Z,94710.47
2019-05-23T17:27:50.021Z,94713.66
2019-05-23T17:30:35.691Z,94708.16
2019-05-23T17:33:04.379Z,94708.61
2019-05-23T17:35:31.169Z,94690.53
2019-05-23T17:37:57.882Z,94721.16
2019-05-23T17:40:25.853Z,94718.31
2019-05-23T17:42:53.033Z,94717.73
2019-05-23T17:45:19.959Z,94718.06
2019-05-23T17:47:46.988Z,94694.71
2019-05-23T17:50:13.876Z,94713.81
2019-05-23T17:52:40.571Z,94716.66
2019-05-23T17:55:07.487Z,94719.72
2019-05-23T17:57:34.791Z,94717.98
2019-05-23T18:00:01.513Z,94713.88
2019-05-23T18:02:28.552Z,94713.88
2019-05-23T18:04:55.418Z,94734.78
2019-05-23T18:07:22.447Z,94703.55
2019-05-23T18:09:49.699Z,94731.14
2019-05-23T18:12:16.610Z,94730.09
2019-05-23T18:14:43.503Z,94728.41
2019-05-23T18:17:10.753Z,94728.67
2019-05-23T18:19:38.196Z,94729.51
2019-05-23T18:22:05.198Z,94731.16
2019-05-23T18:24:33.046Z,94728.31
2019-05-23T18:26:59.818Z,94733.31
2019-05-23T18:29:26.609Z,94732.69
2019-05-23T18:31:54.390Z,94734.53
2019-05-23T18:34:22.013Z,94736.25
2019-05-23T18:36:48.965Z,94739.09
2019-05-23T18:39:16.649Z,94731.82
2019-05-23T18:41:44.516Z,94735.35
2019-05-23T18:44:12.944Z,94733.31
2019-05-23T18:46:52.373Z,94738.06
2019-05-23T18:49:19.366Z,94736.80
2019-05-23T18:51:46.348Z,94746.75
2019-05-23T18:54:13.289Z,94745.12
2019-05-23T18:56:40.194Z,94745.30
2019-05-23T18:59:07.600Z,94747.56
2019-05-23T19:01:34.392Z,94758.30
2019-05-23T19:04:01.413Z,94759.17
2019-05-23T19:06:28.974Z,94760.83
2019-05-23T19:08:57.022Z,94761.27
2019-05-23T19:11:24.444Z,94765.84
2019-05-23T19:13:51.386Z,94766.80
2019-05-23T19:16:18.128Z,94769.82
2019-05-23T19:18:46.775Z,94763.45
2019-05-23T19:21:14.461Z,94772.06
2019-05-23T19:23:41.983Z,94764.45
2019-05-23T19:26:09.073Z,94770.23
2019-05-23T19:28:36.286Z,94779.20
2019-05-23T19:31:04.418Z,94777.45
2019-05-23T19:33:31.344Z,94773.25
2019-05-23T19:35:58.239Z,94780.76
2019-05-23T19:38:25.241Z,94778.41
2019-05-23T19:40:52.068Z,94774.91
2019-05-23T19:43:20.769Z,94776.45
2019-05-23T19:45:47.655Z,94779.28
2019-05-23T19:48:14.584Z,94769.73
2019-05-23T19:50:41.400Z,94768.08
2019-05-23T19:53:08.103Z,94772.54
2019-05-23T19:55:34.980Z,94770.01
2019-05-23T19:58:01.699Z,94772.34
2019-05-23T20:00:30.315Z,94771.28
2019-05-23T20:02:58.462Z,94770.40
2019-05-23T20:05:30.121Z,94765.52
2019-05-23T20:07:57.098Z,94765.43
2019-05-23T20:10:25.990Z,94771.13
2019-05-23T20:12:52.763Z,94773.51
2019-05-23T20:15:20.967Z,94769.02
2019-05-23T20:17:51.451Z,94771.02
2019-05-23T20:20:16.404Z,94770.35
2019-05-23T20:22:43.249Z,94775.33
2019-05-23T20:25:11.460Z,94770.66
2019-05-23T20:27:38.138Z,94767.13
2019-05-23T20:30:07.297Z,94763.03
2019-05-23T20:32:34.223Z,94768.81
2019-05-23T20:35:01.014Z,94780.39
2019-05-23T20:37:29.508Z,94780.87
2019-05-23T20:39:56.195Z,94778.38
2019-05-23T20:42:22.921Z,94776.03
2019-05-23T20:44:49.728Z,94766.87
2019-05-23T20:47:16.686Z,94767.34
2019-05-23T20:49:43.388Z,94767.97
2019-05-23T20:52:10.192Z,94765.55
2019-05-23T20:54:37.020Z,94756.08
2019-05-23T20:57:03.902Z,94759.60
2019-05-23T20:59:30.815Z,94757.79
2019-05-23T21:01:58.062Z,94757.53
2019-05-23T21:04:24.733Z,94766.87
2019-05-23T21:06:51.718Z,94757.14
2019-05-23T21:09:18.434Z,94756.52
2019-05-23T21:11:45.125Z,94750.98
2019-05-23T21:14:12.097Z,94757.98
2019-05-23T21:16:38.934Z,94751.49
2019-05-23T21:19:05.581Z,94756.59
2019-05-23T21:21:32.264Z,94762.98
2019-05-23T21:23:58.977Z,94757.78
2019-05-23T21:26:25.685Z,94763.95
2019-05-23T21:28:52.609Z,94760.52
2019-05-23T21:31:21.446Z,94760.83
2019-05-23T21:33:48.262Z,94764.21
2019-05-23T21:36:14.943Z,94770.21
2019-05-23T21:38:41.633Z,94758.09
2019-05-23T21:41:08.454Z,94761.80
2019-05-23T21:43:35.309Z,94756.73
2019-05-23T21:46:01.993Z,94760.52
2019-05-23T21:48:28.712Z,94759.94
2019-05-23T21:50:55.691Z,94760.34
2019-05-23T21:53:22.623Z,94760.03
2019-05-23T21:55:49.607Z,94753.06
2019-05-23T21:58:16.310Z,94751.44
2019-05-23T22:00:51.620Z,94753.77
2019-05-23T22:03:21.913Z,94755.22
2019-05-23T22:05:48.722Z,94751.61
2019-05-23T22:08:15.556Z,94752.48
2019-05-23T22:10:42.355Z,94755.07
2019-05-23T22:13:09.110Z,94758.13
2019-05-23T22:15:36.599Z,94751.31
2019-05-23T22:18:04.805Z,94749.92
2019-05-23T22:20:31.539Z,94744.81
2019-05-23T22:22:58.762Z,94747.84
2019-05-23T22:25:32.050Z,94743.19
2019-05-23T22:27:59.025Z,94750.03
2019-05-23T22:30:25.885Z,94738.20
2019-05-23T22:32:52.737Z,94732.29
2019-05-23T22:35:20.462Z,94728.84
2019-05-23T22:37:47.300Z,94725.63
2019-05-23T22:40:14.407Z,94723.52
2019-05-23T22:42:41.930Z,94718.64
2019-05-23T22:45:12.348Z,94718.33
2019-05-23T22:47:39.249Z,94716.17
2019-05-23T22:50:06.281Z,94716.64
2019-05-23T22:52:33.074Z,94717.44
2019-05-23T22:54:59.924Z,94719.77
2019-05-23T22:57:26.697Z,94713.12
2019-05-23T22:59:53.489Z,94719.69
2019-05-23T23:02:20.404Z,94712.63
2019-05-23T23:04:47.201Z,94702.58
2019-05-23T23:07:14.878Z,94710.94
2019-05-23T23:09:41.675Z,94712.86
2019-05-23T23:12:08.493Z,94702.43
2019-05-23T23:14:35.319Z,94694.11
2019-05-23T23:17:02.169Z,94698.02
2019-05-23T23:19:29.229Z,94688.24
2019-05-23T23:21:56.046Z,94687.67
2019-05-23T23:24:22.738Z,94685.83
2019-05-23T23:26:49.671Z,94683.33
2019-05-23T23:29:16.452Z,94680.45
2019-05-23T23:31:43.241Z,94681.27
2019-05-23T23:34:10.052Z,94683.42
2019-05-23T23:36:36.788Z,94675.57
2019-05-23T23:39:05.494Z,94679.09
2019-05-23T23:41:32.259Z,94674.52
2019-05-23T23:44:00.125Z,94676.05
2019-05-23T23:46:45.590Z,94675.44
2019-05-23T23:49:30.795Z,94670.42
2019-05-23T23:52:16.028Z,94678.81
2019-05-23T23:55:01.656Z,94671.79
2019-05-23T23:57:46.897Z,94677.68
